sensor_id;sensor_type;location;lat;lon;timestamp;P1;durP1;ratioP1;P2;durP2;ratioP2
59062;SDS011;44851;45.648;9.004;2022-12-18T00:01:48;19.63;;;15.37;;
59062;SDS011;44851;45.648;9.004;2022-12-18T00:04:23;17.37;;;14.73;;
59062;SDS011;44851;45.648;9.004;2022-12-18T00:06:50;17.90;;;14.23;;
59062;SDS011;44851;45.648;9.004;2022-12-18T00:09:16;20.87;;;15.60;;
59062;SDS011;44851;45.648;9.004;2022-12-18T00:11:42;19.40;;;15.03;;
59062;SDS011;44851;45.648;9.004;2022-12-18T00:14:08;20.83;;;15.20;;
59062;SDS011;44851;45.648;9.004;2022-12-18T00:16:35;18.77;;;15.13;;
59062;SDS011;44851;45.648;9.004;2022-12-18T00:19:01;19.53;;;15.67;;
59062;SDS011;44851;45.648;9.004;2022-12-18T00:21:28;20.23;;;15.77;;
59062;SDS011;44851;45.648;9.004;2022-12-18T00:23:54;19.07;;;15.53;;
59062;SDS011;44851;45.648;9.004;2022-12-18T00:26:27;18.93;;;14.03;;
59062;SDS011;44851;45.648;9.004;2022-12-18T00:28:54;19.40;;;14.97;;
59062;SDS011;44851;45.648;9.004;2022-12-18T00:31:23;22.23;;;15.63;;
59062;SDS011;44851;45.648;9.004;2022-12-18T00:33:49;19.23;;;15.07;;
59062;SDS011;44851;45.648;9.004;2022-12-18T00:36:19;17.40;;;14.17;;
59062;SDS011;44851;45.648;9.004;2022-12-18T00:38:47;18.43;;;15.13;;
59062;SDS011;44851;45.648;9.004;2022-12-18T00:41:13;18.23;;;15.03;;
59062;SDS011;44851;45.648;9.004;2022-12-18T00:44:00;21.57;;;14.83;;
59062;SDS011;44851;45.648;9.004;2022-12-18T00:46:26;19.43;;;14.10;;
59062;SDS011;44851;45.648;9.004;2022-12-18T00:48:52;18.63;;;14.83;;
59062;SDS011;44851;45.648;9.004;2022-12-18T00:51:17;17.30;;;13.47;;
59062;SDS011;44851;45.648;9.004;2022-12-18T00:53:43;17.00;;;13.97;;
59062;SDS011;44851;45.648;9.004;2022-12-18T00:56:08;15.80;;;13.13;;
59062;SDS011;44851;45.648;9.004;2022-12-18T00:58:33;17.60;;;13.70;;
59062;SDS011;44851;45.648;9.004;2022-12-18T01:00:59;16.93;;;12.73;;
59062;SDS011;44851;45.648;9.004;2022-12-18T01:03:24;14.50;;;11.87;;
59062;SDS011;44851;45.648;9.004;2022-12-18T01:05:50;15.37;;;11.83;;
59062;SDS011;44851;45.648;9.004;2022-12-18T01:08:15;14.00;;;11.40;;
59062;SDS011;44851;45.648;9.004;2022-12-18T01:10:40;16.67;;;12.17;;
59062;SDS011;44851;45.648;9.004;2022-12-18T01:13:06;14.23;;;11.20;;
59062;SDS011;44851;45.648;9.004;2022-12-18T01:15:32;15.53;;;11.80;;
59062;SDS011;44851;45.648;9.004;2022-12-18T01:17:57;12.63;;;10.50;;
59062;SDS011;44851;45.648;9.004;2022-12-18T01:20:22;14.03;;;11.10;;
59062;SDS011;44851;45.648;9.004;2022-12-18T01:22:48;14.80;;;11.87;;
59062;SDS011;44851;45.648;9.004;2022-12-18T01:25:13;17.53;;;10.93;;
59062;SDS011;44851;45.648;9.004;2022-12-18T01:27:39;14.37;;;11.27;;
59062;SDS011;44851;45.648;9.004;2022-12-18T01:30:04;14.07;;;11.13;;
59062;SDS011;44851;45.648;9.004;2022-12-18T01:32:30;14.00;;;11.20;;
59062;SDS011;44851;45.648;9.004;2022-12-18T01:34:56;14.13;;;10.87;;
59062;SDS011;44851;45.648;9.004;2022-12-18T01:37:22;14.33;;;10.93;;
59062;SDS011;44851;45.648;9.004;2022-12-18T01:39:47;14.23;;;11.73;;
59062;SDS011;44851;45.648;9.004;2022-12-18T01:42:14;14.27;;;10.47;;
59062;SDS011;44851;45.648;9.004;2022-12-18T01:47:35;14.77;;;10.60;;
59062;SDS011;44851;45.648;9.004;2022-12-18T01:50:09;11.63;;;10.00;;
59062;SDS011;44851;45.648;9.004;2022-12-18T01:52:35;12.93;;;9.83;;
59062;SDS011;44851;45.648;9.004;2022-12-18T01:55:02;13.40;;;10.23;;
59062;SDS011;44851;45.648;9.004;2022-12-18T01:57:29;13.07;;;10.43;;
59062;SDS011;44851;45.648;9.004;2022-12-18T01:59:57;11.47;;;9.53;;
59062;SDS011;44851;45.648;9.004;2022-12-18T02:02:28;13.83;;;10.97;;
59062;SDS011;44851;45.648;9.004;2022-12-18T02:04:54;12.30;;;10.13;;
59062;SDS011;44851;45.648;9.004;2022-12-18T02:07:30;12.87;;;10.83;;
59062;SDS011;44851;45.648;9.004;2022-12-18T02:13:12;16.03;;;10.53;;
59062;SDS011;44851;45.648;9.004;2022-12-18T02:19:06;12.33;;;10.57;;
59062;SDS011;44851;45.648;9.004;2022-12-18T02:24:33;15.60;;;12.60;;
59062;SDS011;44851;45.648;9.004;2022-12-18T02:27:05;28.63;;;22.43;;
59062;SDS011;44851;45.648;9.004;2022-12-18T02:29:34;23.07;;;18.47;;
59062;SDS011;44851;45.648;9.004;2022-12-18T02:32:08;18.27;;;13.67;;
59062;SDS011;44851;45.648;9.004;2022-12-18T02:34:39;14.30;;;12.33;;
59062;SDS011;44851;45.648;9.004;2022-12-18T02:37:06;13.03;;;11.50;;
59062;SDS011;44851;45.648;9.004;2022-12-18T02:39:36;16.40;;;11.73;;
59062;SDS011;44851;45.648;9.004;2022-12-18T02:42:03;12.20;;;10.70;;
59062;SDS011;44851;45.648;9.004;2022-12-18T02:44:33;13.17;;;10.57;;
59062;SDS011;44851;45.648;9.004;2022-12-18T02:47:00;11.53;;;10.07;;
59062;SDS011;44851;45.648;9.004;2022-12-18T02:57:15;16.20;;;11.97;;
59062;SDS011;44851;45.648;9.004;2022-12-18T02:59:49;15.60;;;13.33;;
59062;SDS011;44851;45.648;9.004;2022-12-18T03:02:25;14.73;;;12.30;;
59062;SDS011;44851;45.648;9.004;2022-12-18T03:05:47;19.97;;;16.60;;
59062;SDS011;44851;45.648;9.004;2022-12-18T03:08:15;18.47;;;14.47;;
59062;SDS011;44851;45.648;9.004;2022-12-18T03:10:47;16.43;;;13.27;;
59062;SDS011;44851;45.648;9.004;2022-12-18T03:13:20;16.40;;;13.17;;
59062;SDS011;44851;45.648;9.004;2022-12-18T03:16:00;14.23;;;11.87;;
59062;SDS011;44851;45.648;9.004;2022-12-18T03:18:30;14.03;;;11.23;;
59062;SDS011;44851;45.648;9.004;2022-12-18T03:21:32;14.53;;;11.33;;
59062;SDS011;44851;45.648;9.004;2022-12-18T03:24:03;12.03;;;10.17;;
59062;SDS011;44851;45.648;9.004;2022-12-18T03:26:32;16.07;;;12.80;;
59062;SDS011;44851;45.648;9.004;2022-12-18T03:29:08;27.40;;;16.33;;
59062;SDS011;44851;45.648;9.004;2022-12-18T03:31:47;20.63;;;13.63;;
59062;SDS011;44851;45.648;9.004;2022-12-18T03:34:27;14.80;;;12.27;;
59062;SDS011;44851;45.648;9.004;2022-12-18T03:36:55;19.43;;;13.43;;
59062;SDS011;44851;45.648;9.004;2022-12-18T03:39:21;15.27;;;12.33;;
59062;SDS011;44851;45.648;9.004;2022-12-18T03:41:51;12.43;;;10.83;;
59062;SDS011;44851;45.648;9.004;2022-12-18T03:45:01;14.17;;;11.37;;
59062;SDS011;44851;45.648;9.004;2022-12-18T03:50:22;17.43;;;12.43;;
59062;SDS011;44851;45.648;9.004;2022-12-18T03:55:53;15.93;;;12.60;;
59062;SDS011;44851;45.648;9.004;2022-12-18T03:58:20;14.83;;;12.30;;
59062;SDS011;44851;45.648;9.004;2022-12-18T04:00:50;18.17;;;13.40;;
59062;SDS011;44851;45.648;9.004;2022-12-18T04:03:18;16.30;;;12.50;;
59062;SDS011;44851;45.648;9.004;2022-12-18T04:05:45;17.13;;;14.33;;
59062;SDS011;44851;45.648;9.004;2022-12-18T04:08:12;20.67;;;16.23;;
59062;SDS011;44851;45.648;9.004;2022-12-18T04:10:38;22.07;;;16.40;;
59062;SDS011;44851;45.648;9.004;2022-12-18T04:13:04;23.47;;;17.10;;
59062;SDS011;44851;45.648;9.004;2022-12-18T04:15:29;20.57;;;14.87;;
59062;SDS011;44851;45.648;9.004;2022-12-18T04:17:59;17.57;;;13.73;;
59062;SDS011;44851;45.648;9.004;2022-12-18T04:20:24;15.90;;;12.43;;
59062;SDS011;44851;45.648;9.004;2022-12-18T04:22:50;17.03;;;12.90;;
59062;SDS011;44851;45.648;9.004;2022-12-18T04:25:16;14.80;;;11.90;;
59062;SDS011;44851;45.648;9.004;2022-12-18T04:27:41;15.47;;;13.03;;
59062;SDS011;44851;45.648;9.004;2022-12-18T04:30:07;15.83;;;12.83;;
59062;SDS011;44851;45.648;9.004;2022-12-18T04:32:34;16.87;;;13.60;;
59062;SDS011;44851;45.648;9.004;2022-12-18T04:34:59;19.73;;;14.17;;
59062;SDS011;44851;45.648;9.004;2022-12-18T04:37:25;19.37;;;13.87;;
59062;SDS011;44851;45.648;9.004;2022-12-18T04:39:50;16.17;;;13.03;;
59062;SDS011;44851;45.648;9.004;2022-12-18T04:42:15;16.60;;;12.57;;
59062;SDS011;44851;45.648;9.004;2022-12-18T04:44:41;17.07;;;13.03;;
59062;SDS011;44851;45.648;9.004;2022-12-18T04:47:06;14.40;;;11.80;;
59062;SDS011;44851;45.648;9.004;2022-12-18T04:49:32;16.53;;;13.53;;
59062;SDS011;44851;45.648;9.004;2022-12-18T04:51:58;15.43;;;12.20;;
59062;SDS011;44851;45.648;9.004;2022-12-18T04:54:23;15.27;;;12.80;;
59062;SDS011;44851;45.648;9.004;2022-12-18T04:56:48;16.57;;;12.97;;
59062;SDS011;44851;45.648;9.004;2022-12-18T04:59:14;14.07;;;12.27;;
59062;SDS011;44851;45.648;9.004;2022-12-18T05:01:39;17.03;;;13.43;;
59062;SDS011;44851;45.648;9.004;2022-12-18T05:04:05;16.73;;;13.60;;
59062;SDS011;44851;45.648;9.004;2022-12-18T05:06:30;18.33;;;14.03;;
59062;SDS011;44851;45.648;9.004;2022-12-18T05:08:56;19.20;;;14.10;;
59062;SDS011;44851;45.648;9.004;2022-12-18T05:11:21;14.83;;;12.23;;
59062;SDS011;44851;45.648;9.004;2022-12-18T05:13:47;17.33;;;13.20;;
59062;SDS011;44851;45.648;9.004;2022-12-18T05:16:12;15.27;;;11.93;;
59062;SDS011;44851;45.648;9.004;2022-12-18T05:18:38;14.17;;;12.67;;
59062;SDS011;44851;45.648;9.004;2022-12-18T05:21:04;17.30;;;13.23;;
59062;SDS011;44851;45.648;9.004;2022-12-18T05:23:30;18.33;;;12.73;;
59062;SDS011;44851;45.648;9.004;2022-12-18T05:25:59;17.00;;;12.70;;
59062;SDS011;44851;45.648;9.004;2022-12-18T05:28:27;17.23;;;12.90;;
59062;SDS011;44851;45.648;9.004;2022-12-18T05:30:55;18.27;;;13.10;;
59062;SDS011;44851;45.648;9.004;2022-12-18T05:33:23;15.20;;;12.73;;
59062;SDS011;44851;45.648;9.004;2022-12-18T05:35:50;17.43;;;13.23;;
59062;SDS011;44851;45.648;9.004;2022-12-18T05:38:16;17.73;;;14.13;;
59062;SDS011;44851;45.648;9.004;2022-12-18T05:40:42;19.60;;;14.00;;
59062;SDS011;44851;45.648;9.004;2022-12-18T05:43:08;16.23;;;12.97;;
59062;SDS011;44851;45.648;9.004;2022-12-18T05:45:36;15.00;;;12.10;;
59062;SDS011;44851;45.648;9.004;2022-12-18T05:48:03;13.63;;;11.40;;
59062;SDS011;44851;45.648;9.004;2022-12-18T05:50:29;17.00;;;12.27;;
59062;SDS011;44851;45.648;9.004;2022-12-18T05:52:54;15.73;;;11.47;;
59062;SDS011;44851;45.648;9.004;2022-12-18T05:55:19;14.43;;;10.70;;
59062;SDS011;44851;45.648;9.004;2022-12-18T05:57:45;13.77;;;10.70;;
59062;SDS011;44851;45.648;9.004;2022-12-18T06:00:10;15.27;;;12.37;;
59062;SDS011;44851;45.648;9.004;2022-12-18T06:02:36;15.50;;;12.77;;
59062;SDS011;44851;45.648;9.004;2022-12-18T06:05:02;16.83;;;13.80;;
59062;SDS011;44851;45.648;9.004;2022-12-18T06:07:27;16.10;;;12.73;;
59062;SDS011;44851;45.648;9.004;2022-12-18T06:09:53;16.63;;;12.90;;
59062;SDS011;44851;45.648;9.004;2022-12-18T06:12:18;15.47;;;12.83;;
59062;SDS011;44851;45.648;9.004;2022-12-18T06:14:44;15.67;;;12.30;;
59062;SDS011;44851;45.648;9.004;2022-12-18T06:17:09;15.63;;;11.93;;
59062;SDS011;44851;45.648;9.004;2022-12-18T06:19:34;17.10;;;12.87;;
59062;SDS011;44851;45.648;9.004;2022-12-18T06:22:00;14.23;;;12.33;;
59062;SDS011;44851;45.648;9.004;2022-12-18T06:24:25;14.57;;;12.07;;
59062;SDS011;44851;45.648;9.004;2022-12-18T06:26:51;15.20;;;11.50;;
59062;SDS011;44851;45.648;9.004;2022-12-18T06:29:16;15.83;;;12.53;;
59062;SDS011;44851;45.648;9.004;2022-12-18T06:31:41;18.03;;;12.17;;
59062;SDS011;44851;45.648;9.004;2022-12-18T06:34:07;15.27;;;11.13;;
59062;SDS011;44851;45.648;9.004;2022-12-18T06:36:32;14.13;;;10.93;;
59062;SDS011;44851;45.648;9.004;2022-12-18T06:38:58;14.20;;;11.30;;
59062;SDS011;44851;45.648;9.004;2022-12-18T06:41:23;13.97;;;11.03;;
59062;SDS011;44851;45.648;9.004;2022-12-18T06:43:49;15.40;;;12.17;;
59062;SDS011;44851;45.648;9.004;2022-12-18T06:46:14;14.90;;;11.30;;
59062;SDS011;44851;45.648;9.004;2022-12-18T06:48:40;16.30;;;12.00;;
59062;SDS011;44851;45.648;9.004;2022-12-18T06:51:05;17.13;;;12.93;;
59062;SDS011;44851;45.648;9.004;2022-12-18T06:53:31;17.33;;;12.67;;
59062;SDS011;44851;45.648;9.004;2022-12-18T06:56:04;18.27;;;13.73;;
59062;SDS011;44851;45.648;9.004;2022-12-18T06:58:31;15.97;;;12.67;;
59062;SDS011;44851;45.648;9.004;2022-12-18T07:01:01;15.80;;;12.60;;
59062;SDS011;44851;45.648;9.004;2022-12-18T07:03:28;15.40;;;12.63;;
59062;SDS011;44851;45.648;9.004;2022-12-18T07:05:53;18.53;;;12.90;;
59062;SDS011;44851;45.648;9.004;2022-12-18T07:08:18;17.37;;;12.77;;
59062;SDS011;44851;45.648;9.004;2022-12-18T07:10:44;18.23;;;13.67;;
59062;SDS011;44851;45.648;9.004;2022-12-18T07:13:09;22.37;;;14.73;;
59062;SDS011;44851;45.648;9.004;2022-12-18T07:15:35;21.53;;;15.13;;
59062;SDS011;44851;45.648;9.004;2022-12-18T07:18:01;21.03;;;14.80;;
59062;SDS011;44851;45.648;9.004;2022-12-18T07:20:27;22.07;;;15.60;;
59062;SDS011;44851;45.648;9.004;2022-12-18T07:22:52;19.33;;;13.73;;
59062;SDS011;44851;45.648;9.004;2022-12-18T07:25:17;17.30;;;13.87;;
59062;SDS011;44851;45.648;9.004;2022-12-18T07:27:43;19.83;;;13.97;;
59062;SDS011;44851;45.648;9.004;2022-12-18T07:30:09;18.27;;;14.47;;
59062;SDS011;44851;45.648;9.004;2022-12-18T07:32:34;18.57;;;14.17;;
59062;SDS011;44851;45.648;9.004;2022-12-18T07:35:00;21.37;;;14.93;;
59062;SDS011;44851;45.648;9.004;2022-12-18T07:37:25;19.20;;;14.20;;
59062;SDS011;44851;45.648;9.004;2022-12-18T07:39:51;20.00;;;14.47;;
59062;SDS011;44851;45.648;9.004;2022-12-18T07:42:16;19.60;;;14.80;;
59062;SDS011;44851;45.648;9.004;2022-12-18T07:44:59;20.60;;;15.67;;
59062;SDS011;44851;45.648;9.004;2022-12-18T07:47:26;23.53;;;15.77;;
59062;SDS011;44851;45.648;9.004;2022-12-18T07:49:52;21.67;;;15.73;;
59062;SDS011;44851;45.648;9.004;2022-12-18T07:52:17;19.30;;;14.53;;
59062;SDS011;44851;45.648;9.004;2022-12-18T07:54:42;20.87;;;14.73;;
59062;SDS011;44851;45.648;9.004;2022-12-18T07:57:08;19.53;;;14.67;;
59062;SDS011;44851;45.648;9.004;2022-12-18T07:59:33;21.83;;;16.13;;
59062;SDS011;44851;45.648;9.004;2022-12-18T08:01:59;22.17;;;16.03;;
59062;SDS011;44851;45.648;9.004;2022-12-18T08:04:25;16.67;;;13.97;;
59062;SDS011;44851;45.648;9.004;2022-12-18T08:06:50;18.23;;;15.37;;
59062;SDS011;44851;45.648;9.004;2022-12-18T08:09:16;19.67;;;14.77;;
59062;SDS011;44851;45.648;9.004;2022-12-18T08:11:42;20.77;;;16.13;;
59062;SDS011;44851;45.648;9.004;2022-12-18T08:14:08;28.63;;;20.10;;
59062;SDS011;44851;45.648;9.004;2022-12-18T08:16:33;25.83;;;18.97;;
59062;SDS011;44851;45.648;9.004;2022-12-18T08:18:59;21.70;;;16.63;;
59062;SDS011;44851;45.648;9.004;2022-12-18T08:21:25;22.10;;;15.87;;
59062;SDS011;44851;45.648;9.004;2022-12-18T08:23:54;23.23;;;16.30;;
59062;SDS011;44851;45.648;9.004;2022-12-18T08:26:22;23.43;;;16.90;;
59062;SDS011;44851;45.648;9.004;2022-12-18T08:28:49;22.73;;;15.90;;
59062;SDS011;44851;45.648;9.004;2022-12-18T08:31:15;20.87;;;15.13;;
59062;SDS011;44851;45.648;9.004;2022-12-18T08:33:41;21.27;;;16.03;;
59062;SDS011;44851;45.648;9.004;2022-12-18T08:36:07;21.23;;;15.40;;
59062;SDS011;44851;45.648;9.004;2022-12-18T08:38:34;17.27;;;14.87;;
59062;SDS011;44851;45.648;9.004;2022-12-18T08:41:00;19.33;;;14.47;;
59062;SDS011;44851;45.648;9.004;2022-12-18T08:43:30;21.60;;;15.67;;
59062;SDS011;44851;45.648;9.004;2022-12-18T08:46:14;28.70;;;18.07;;
59062;SDS011;44851;45.648;9.004;2022-12-18T08:48:40;162.97;;;77.90;;
59062;SDS011;44851;45.648;9.004;2022-12-18T08:51:05;52.90;;;29.00;;
59062;SDS011;44851;45.648;9.004;2022-12-18T08:53:31;34.20;;;20.43;;
59062;SDS011;44851;45.648;9.004;2022-12-18T08:55:56;21.77;;;16.40;;
59062;SDS011;44851;45.648;9.004;2022-12-18T08:58:22;23.67;;;16.80;;
59062;SDS011;44851;45.648;9.004;2022-12-18T09:00:47;20.53;;;15.63;;
59062;SDS011;44851;45.648;9.004;2022-12-18T09:03:16;20.70;;;14.63;;
59062;SDS011;44851;45.648;9.004;2022-12-18T09:05:43;17.97;;;13.53;;
59062;SDS011;44851;45.648;9.004;2022-12-18T09:08:11;15.83;;;12.87;;
59062;SDS011;44851;45.648;9.004;2022-12-18T09:10:43;16.67;;;12.87;;
59062;SDS011;44851;45.648;9.004;2022-12-18T09:13:10;16.17;;;13.30;;
59062;SDS011;44851;45.648;9.004;2022-12-18T09:15:46;17.97;;;14.03;;
59062;SDS011;44851;45.648;9.004;2022-12-18T09:18:13;17.13;;;12.83;;
59062;SDS011;44851;45.648;9.004;2022-12-18T09:20:41;16.43;;;11.30;;
59062;SDS011;44851;45.648;9.004;2022-12-18T09:23:06;12.00;;;10.03;;
59062;SDS011;44851;45.648;9.004;2022-12-18T09:25:32;14.73;;;11.60;;
59062;SDS011;44851;45.648;9.004;2022-12-18T09:28:01;14.70;;;10.87;;
59062;SDS011;44851;45.648;9.004;2022-12-18T09:30:40;11.93;;;9.73;;
59062;SDS011;44851;45.648;9.004;2022-12-18T09:33:08;12.83;;;9.97;;
59062;SDS011;44851;45.648;9.004;2022-12-18T09:35:37;12.20;;;9.90;;
59062;SDS011;44851;45.648;9.004;2022-12-18T09:38:03;13.87;;;10.47;;
59062;SDS011;44851;45.648;9.004;2022-12-18T09:40:32;15.50;;;10.90;;
59062;SDS011;44851;45.648;9.004;2022-12-18T09:43:03;11.80;;;9.90;;
59062;SDS011;44851;45.648;9.004;2022-12-18T09:45:40;14.33;;;10.90;;
59062;SDS011;44851;45.648;9.004;2022-12-18T09:48:16;13.33;;;9.67;;
59062;SDS011;44851;45.648;9.004;2022-12-18T09:50:47;13.90;;;10.57;;
59062;SDS011;44851;45.648;9.004;2022-12-18T09:53:16;13.97;;;10.47;;
59062;SDS011;44851;45.648;9.004;2022-12-18T09:55:46;13.97;;;10.90;;
59062;SDS011;44851;45.648;9.004;2022-12-18T09:58:19;12.60;;;9.97;;
59062;SDS011;44851;45.648;9.004;2022-12-18T10:00:51;14.27;;;11.00;;
59062;SDS011;44851;45.648;9.004;2022-12-18T10:03:18;15.33;;;11.37;;
59062;SDS011;44851;45.648;9.004;2022-12-18T10:13:49;12.13;;;10.03;;
59062;SDS011;44851;45.648;9.004;2022-12-18T10:27:26;10.10;;;8.87;;
59062;SDS011;44851;45.648;9.004;2022-12-18T10:29:52;10.87;;;8.87;;
59062;SDS011;44851;45.648;9.004;2022-12-18T10:32:22;11.23;;;9.37;;
59062;SDS011;44851;45.648;9.004;2022-12-18T10:34:51;11.47;;;9.43;;
59062;SDS011;44851;45.648;9.004;2022-12-18T10:37:19;11.77;;;9.73;;
59062;SDS011;44851;45.648;9.004;2022-12-18T10:39:47;10.73;;;9.37;;
59062;SDS011;44851;45.648;9.004;2022-12-18T10:42:40;14.60;;;11.00;;
59062;SDS011;44851;45.648;9.004;2022-12-18T10:47:47;16.07;;;11.57;;
59062;SDS011;44851;45.648;9.004;2022-12-18T10:50:23;16.13;;;12.93;;
59062;SDS011;44851;45.648;9.004;2022-12-18T10:52:57;14.73;;;12.27;;
59062;SDS011;44851;45.648;9.004;2022-12-18T10:55:27;15.83;;;11.43;;
59062;SDS011;44851;45.648;9.004;2022-12-18T10:58:13;14.07;;;12.03;;
59062;SDS011;44851;45.648;9.004;2022-12-18T11:00:42;16.23;;;13.00;;
59062;SDS011;44851;45.648;9.004;2022-12-18T11:06:22;16.13;;;12.63;;
59062;SDS011;44851;45.648;9.004;2022-12-18T11:11:24;18.73;;;14.33;;
59062;SDS011;44851;45.648;9.004;2022-12-18T11:14:00;20.97;;;15.10;;
59062;SDS011;44851;45.648;9.004;2022-12-18T11:16:30;19.80;;;15.33;;
59062;SDS011;44851;45.648;9.004;2022-12-18T11:21:50;35.40;;;22.40;;
59062;SDS011;44851;45.648;9.004;2022-12-18T11:24:19;36.33;;;22.87;;
59062;SDS011;44851;45.648;9.004;2022-12-18T11:26:49;40.07;;;24.47;;
59062;SDS011;44851;45.648;9.004;2022-12-18T11:29:19;43.37;;;24.73;;
59062;SDS011;44851;45.648;9.004;2022-12-18T11:32:19;41.63;;;24.83;;
59062;SDS011;44851;45.648;9.004;2022-12-18T11:35:12;43.67;;;26.40;;
59062;SDS011;44851;45.648;9.004;2022-12-18T11:37:45;40.23;;;24.03;;
59062;SDS011;44851;45.648;9.004;2022-12-18T11:40:18;38.17;;;23.07;;
59062;SDS011;44851;45.648;9.004;2022-12-18T11:42:54;33.87;;;21.70;;
59062;SDS011;44851;45.648;9.004;2022-12-18T11:45:28;38.53;;;23.37;;
59062;SDS011;44851;45.648;9.004;2022-12-18T11:48:02;38.60;;;24.27;;
59062;SDS011;44851;45.648;9.004;2022-12-18T11:50:34;37.03;;;23.10;;
59062;SDS011;44851;45.648;9.004;2022-12-18T11:53:22;37.80;;;24.20;;
59062;SDS011;44851;45.648;9.004;2022-12-18T11:55:53;37.17;;;23.97;;
59062;SDS011;44851;45.648;9.004;2022-12-18T12:12:15;53.53;;;32.90;;
59062;SDS011;44851;45.648;9.004;2022-12-18T12:20:50;51.67;;;27.67;;
59062;SDS011;44851;45.648;9.004;2022-12-18T12:23:39;48.67;;;27.07;;
59062;SDS011;44851;45.648;9.004;2022-12-18T12:39:41;46.13;;;29.67;;
59062;SDS011;44851;45.648;9.004;2022-12-18T12:42:31;52.00;;;30.53;;
59062;SDS011;44851;45.648;9.004;2022-12-18T12:45:26;48.27;;;28.03;;
59062;SDS011;44851;45.648;9.004;2022-12-18T12:47:58;44.10;;;26.00;;
59062;SDS011;44851;45.648;9.004;2022-12-18T12:50:26;42.47;;;26.87;;
59062;SDS011;44851;45.648;9.004;2022-12-18T12:52:53;43.70;;;27.37;;
59062;SDS011;44851;45.648;9.004;2022-12-18T12:55:22;50.97;;;28.83;;
59062;SDS011;44851;45.648;9.004;2022-12-18T13:00:46;52.47;;;26.93;;
59062;SDS011;44851;45.648;9.004;2022-12-18T13:06:23;45.63;;;28.67;;
59062;SDS011;44851;45.648;9.004;2022-12-18T13:09:00;47.17;;;27.07;;
59062;SDS011;44851;45.648;9.004;2022-12-18T13:11:37;48.90;;;28.47;;
59062;SDS011;44851;45.648;9.004;2022-12-18T13:14:31;48.20;;;28.30;;
59062;SDS011;44851;45.648;9.004;2022-12-18T13:17:13;43.83;;;27.33;;
59062;SDS011;44851;45.648;9.004;2022-12-18T13:19:51;42.97;;;27.13;;
59062;SDS011;44851;45.648;9.004;2022-12-18T13:22:30;47.60;;;28.87;;
59062;SDS011;44851;45.648;9.004;2022-12-18T13:24:59;45.17;;;27.00;;
59062;SDS011;44851;45.648;9.004;2022-12-18T13:38:20;43.50;;;27.23;;
59062;SDS011;44851;45.648;9.004;2022-12-18T13:43:46;36.03;;;23.70;;
59062;SDS011;44851;45.648;9.004;2022-12-18T13:46:23;40.70;;;25.27;;
59062;SDS011;44851;45.648;9.004;2022-12-18T13:51:26;39.73;;;23.90;;
59062;SDS011;44851;45.648;9.004;2022-12-18T13:53:59;43.57;;;25.70;;
59062;SDS011;44851;45.648;9.004;2022-12-18T13:56:27;38.60;;;24.07;;
59062;SDS011;44851;45.648;9.004;2022-12-18T13:59:17;37.73;;;24.20;;
59062;SDS011;44851;45.648;9.004;2022-12-18T14:01:47;39.67;;;25.67;;
59062;SDS011;44851;45.648;9.004;2022-12-18T14:07:06;50.23;;;29.83;;
59062;SDS011;44851;45.648;9.004;2022-12-18T14:09:40;46.30;;;26.63;;
59062;SDS011;44851;45.648;9.004;2022-12-18T14:12:12;41.03;;;26.80;;
59062;SDS011;44851;45.648;9.004;2022-12-18T14:15:03;43.87;;;26.20;;
59062;SDS011;44851;45.648;9.004;2022-12-18T14:17:31;43.83;;;26.80;;
59062;SDS011;44851;45.648;9.004;2022-12-18T14:19:57;41.07;;;24.80;;
59062;SDS011;44851;45.648;9.004;2022-12-18T14:22:25;42.60;;;26.60;;
59062;SDS011;44851;45.648;9.004;2022-12-18T14:30:35;49.07;;;29.27;;
59062;SDS011;44851;45.648;9.004;2022-12-18T14:38:32;41.43;;;25.37;;
59062;SDS011;44851;45.648;9.004;2022-12-18T14:40:59;39.17;;;24.40;;
59062;SDS011;44851;45.648;9.004;2022-12-18T14:43:39;45.63;;;28.37;;
59062;SDS011;44851;45.648;9.004;2022-12-18T14:46:24;52.33;;;27.70;;
59062;SDS011;44851;45.648;9.004;2022-12-18T14:49:21;50.23;;;28.67;;
59062;SDS011;44851;45.648;9.004;2022-12-18T14:51:54;47.53;;;28.60;;
59062;SDS011;44851;45.648;9.004;2022-12-18T14:54:26;49.97;;;30.63;;
59062;SDS011;44851;45.648;9.004;2022-12-18T14:59:25;49.10;;;30.47;;
59062;SDS011;44851;45.648;9.004;2022-12-18T15:02:03;49.20;;;29.87;;
59062;SDS011;44851;45.648;9.004;2022-12-18T15:04:45;54.77;;;31.63;;
59062;SDS011;44851;45.648;9.004;2022-12-18T15:07:22;50.83;;;29.77;;
59062;SDS011;44851;45.648;9.004;2022-12-18T15:10:04;50.93;;;30.63;;
59062;SDS011;44851;45.648;9.004;2022-12-18T15:13:06;49.23;;;28.93;;
59062;SDS011;44851;45.648;9.004;2022-12-18T15:18:05;48.93;;;28.97;;
59062;SDS011;44851;45.648;9.004;2022-12-18T15:20:52;51.67;;;30.70;;
59062;SDS011;44851;45.648;9.004;2022-12-18T15:23:21;46.77;;;29.20;;
59062;SDS011;44851;45.648;9.004;2022-12-18T15:28:30;53.67;;;31.33;;
59062;SDS011;44851;45.648;9.004;2022-12-18T15:30:58;54.47;;;31.67;;
59062;SDS011;44851;45.648;9.004;2022-12-18T15:33:36;47.60;;;29.83;;
59062;SDS011;44851;45.648;9.004;2022-12-18T15:36:04;53.73;;;30.33;;
59062;SDS011;44851;45.648;9.004;2022-12-18T15:38:33;54.20;;;31.20;;
59062;SDS011;44851;45.648;9.004;2022-12-18T15:40:59;55.77;;;31.67;;
59062;SDS011;44851;45.648;9.004;2022-12-18T15:43:25;50.13;;;29.67;;
59062;SDS011;44851;45.648;9.004;2022-12-18T15:48:35;53.90;;;31.63;;
59062;SDS011;44851;45.648;9.004;2022-12-18T15:51:05;45.47;;;28.57;;
59062;SDS011;44851;45.648;9.004;2022-12-18T15:53:34;55.17;;;32.27;;
59062;SDS011;44851;45.648;9.004;2022-12-18T15:56:00;55.97;;;32.30;;
59062;SDS011;44851;45.648;9.004;2022-12-18T15:58:43;58.50;;;32.30;;
59062;SDS011;44851;45.648;9.004;2022-12-18T16:01:09;64.87;;;35.53;;
59062;SDS011;44851;45.648;9.004;2022-12-18T16:03:36;58.83;;;34.03;;
59062;SDS011;44851;45.648;9.004;2022-12-18T16:06:01;59.13;;;31.97;;
59062;SDS011;44851;45.648;9.004;2022-12-18T16:08:29;56.93;;;32.37;;
59062;SDS011;44851;45.648;9.004;2022-12-18T16:10:55;58.93;;;32.70;;
59062;SDS011;44851;45.648;9.004;2022-12-18T16:13:22;50.67;;;30.60;;
59062;SDS011;44851;45.648;9.004;2022-12-18T16:15:47;52.07;;;30.37;;
59062;SDS011;44851;45.648;9.004;2022-12-18T16:18:13;58.17;;;31.07;;
59062;SDS011;44851;45.648;9.004;2022-12-18T16:20:39;54.03;;;30.97;;
59062;SDS011;44851;45.648;9.004;2022-12-18T16:23:04;51.47;;;30.47;;
59062;SDS011;44851;45.648;9.004;2022-12-18T16:25:30;53.33;;;30.77;;
59062;SDS011;44851;45.648;9.004;2022-12-18T16:27:56;57.10;;;30.60;;
59062;SDS011;44851;45.648;9.004;2022-12-18T16:30:23;55.23;;;30.83;;
59062;SDS011;44851;45.648;9.004;2022-12-18T16:32:52;51.30;;;29.47;;
59062;SDS011;44851;45.648;9.004;2022-12-18T16:35:18;54.97;;;31.27;;
59062;SDS011;44851;45.648;9.004;2022-12-18T16:37:44;62.20;;;32.60;;
59062;SDS011;44851;45.648;9.004;2022-12-18T16:40:10;55.17;;;31.30;;
59062;SDS011;44851;45.648;9.004;2022-12-18T16:42:38;57.93;;;33.77;;
59062;SDS011;44851;45.648;9.004;2022-12-18T16:45:05;58.50;;;32.43;;
59062;SDS011;44851;45.648;9.004;2022-12-18T16:47:32;58.97;;;32.50;;
59062;SDS011;44851;45.648;9.004;2022-12-18T16:49:58;57.60;;;33.07;;
59062;SDS011;44851;45.648;9.004;2022-12-18T16:52:23;57.50;;;31.60;;